sensor_id;sensor_type;location;lat;lon;timestamp;P1;durP1;ratioP1;P2;durP2;ratioP2
20084;SDS011;10202;48.474;9.138;2022-07-23T00:00:10;13.60;;;7.65;;
20084;SDS011;10202;48.474;9.138;2022-07-23T00:02:36;8.98;;;6.78;;
20084;SDS011;10202;48.474;9.138;2022-07-23T00:05:02;8.18;;;6.53;;
20084;SDS011;10202;48.474;9.138;2022-07-23T00:07:28;7.38;;;5.78;;
20084;SDS011;10202;48.474;9.138;2022-07-23T00:09:53;7.75;;;6.07;;
20084;SDS011;10202;48.474;9.138;2022-07-23T00:12:18;7.18;;;5.85;;
20084;SDS011;10202;48.474;9.138;2022-07-23T00:14:44;7.82;;;5.63;;
20084;SDS011;10202;48.474;9.138;2022-07-23T00:17:09;6.18;;;5.35;;
20084;SDS011;10202;48.474;9.138;2022-07-23T00:19:35;7.95;;;5.40;;
20084;SDS011;10202;48.474;9.138;2022-07-23T00:22:00;6.20;;;5.50;;
20084;SDS011;10202;48.474;9.138;2022-07-23T00:24:26;8.63;;;5.40;;
20084;SDS011;10202;48.474;9.138;2022-07-23T00:26:51;8.05;;;5.30;;
20084;SDS011;10202;48.474;9.138;2022-07-23T00:29:17;6.72;;;5.40;;
20084;SDS011;10202;48.474;9.138;2022-07-23T00:31:42;6.90;;;5.78;;
20084;SDS011;10202;48.474;9.138;2022-07-23T00:34:08;7.28;;;6.00;;
20084;SDS011;10202;48.474;9.138;2022-07-23T00:36:34;9.85;;;6.03;;
20084;SDS011;10202;48.474;9.138;2022-07-23T00:38:59;7.22;;;5.88;;
20084;SDS011;10202;48.474;9.138;2022-07-23T00:41:25;7.13;;;6.05;;
20084;SDS011;10202;48.474;9.138;2022-07-23T00:43:50;7.75;;;6.47;;
20084;SDS011;10202;48.474;9.138;2022-07-23T00:46:20;11.95;;;6.72;;
20084;SDS011;10202;48.474;9.138;2022-07-23T00:48:46;10.25;;;7.53;;
20084;SDS011;10202;48.474;9.138;2022-07-23T00:51:11;7.97;;;6.87;;
20084;SDS011;10202;48.474;9.138;2022-07-23T00:53:37;12.60;;;7.05;;
20084;SDS011;10202;48.474;9.138;2022-07-23T00:56:02;7.72;;;6.80;;
20084;SDS011;10202;48.474;9.138;2022-07-23T00:58:28;10.18;;;7.20;;
20084;SDS011;10202;48.474;9.138;2022-07-23T01:00:54;9.70;;;7.18;;
20084;SDS011;10202;48.474;9.138;2022-07-23T01:03:19;9.77;;;7.18;;
20084;SDS011;10202;48.474;9.138;2022-07-23T01:05:45;7.88;;;6.40;;
20084;SDS011;10202;48.474;9.138;2022-07-23T01:08:10;7.68;;;6.43;;
20084;SDS011;10202;48.474;9.138;2022-07-23T01:10:36;9.73;;;7.10;;
20084;SDS011;10202;48.474;9.138;2022-07-23T01:13:04;8.43;;;6.72;;
20084;SDS011;10202;48.474;9.138;2022-07-23T01:15:31;12.05;;;6.53;;
20084;SDS011;10202;48.474;9.138;2022-07-23T01:18:01;8.25;;;7.00;;
20084;SDS011;10202;48.474;9.138;2022-07-23T01:20:28;8.32;;;6.90;;
20084;SDS011;10202;48.474;9.138;2022-07-23T01:22:54;8.15;;;6.95;;
20084;SDS011;10202;48.474;9.138;2022-07-23T01:25:20;7.32;;;6.13;;
20084;SDS011;10202;48.474;9.138;2022-07-23T01:27:53;7.95;;;7.15;;
20084;SDS011;10202;48.474;9.138;2022-07-23T01:30:19;9.55;;;6.80;;
20084;SDS011;10202;48.474;9.138;2022-07-23T01:32:46;7.95;;;5.88;;
20084;SDS011;10202;48.474;9.138;2022-07-23T01:35:12;7.50;;;6.30;;
20084;SDS011;10202;48.474;9.138;2022-07-23T01:37:40;8.00;;;6.90;;
20084;SDS011;10202;48.474;9.138;2022-07-23T01:40:06;9.40;;;6.93;;
20084;SDS011;10202;48.474;9.138;2022-07-23T01:42:32;10.50;;;6.72;;
20084;SDS011;10202;48.474;9.138;2022-07-23T01:44:58;15.02;;;6.85;;
20084;SDS011;10202;48.474;9.138;2022-07-23T01:47:23;13.90;;;6.57;;
20084;SDS011;10202;48.474;9.138;2022-07-23T01:49:52;9.43;;;6.88;;
20084;SDS011;10202;48.474;9.138;2022-07-23T01:52:37;10.20;;;6.63;;
20084;SDS011;10202;48.474;9.138;2022-07-23T01:55:02;9.70;;;6.40;;
20084;SDS011;10202;48.474;9.138;2022-07-23T01:57:28;8.43;;;6.20;;
20084;SDS011;10202;48.474;9.138;2022-07-23T01:59:54;7.97;;;6.25;;
20084;SDS011;10202;48.474;9.138;2022-07-23T02:02:20;8.80;;;6.68;;
20084;SDS011;10202;48.474;9.138;2022-07-23T02:04:46;7.22;;;6.47;;
20084;SDS011;10202;48.474;9.138;2022-07-23T02:07:11;10.68;;;6.93;;
20084;SDS011;10202;48.474;9.138;2022-07-23T02:09:36;7.00;;;6.30;;
20084;SDS011;10202;48.474;9.138;2022-07-23T02:12:02;8.05;;;6.75;;
20084;SDS011;10202;48.474;9.138;2022-07-23T02:14:28;9.77;;;7.00;;
20084;SDS011;10202;48.474;9.138;2022-07-23T02:16:53;8.10;;;6.97;;
20084;SDS011;10202;48.474;9.138;2022-07-23T02:19:19;8.23;;;7.10;;
20084;SDS011;10202;48.474;9.138;2022-07-23T02:21:45;12.43;;;7.07;;
20084;SDS011;10202;48.474;9.138;2022-07-23T02:24:10;7.18;;;6.43;;
20084;SDS011;10202;48.474;9.138;2022-07-23T02:26:39;8.10;;;6.80;;
20084;SDS011;10202;48.474;9.138;2022-07-23T02:29:06;12.57;;;6.85;;
20084;SDS011;10202;48.474;9.138;2022-07-23T02:31:31;10.02;;;7.05;;
20084;SDS011;10202;48.474;9.138;2022-07-23T02:33:57;10.05;;;7.35;;
20084;SDS011;10202;48.474;9.138;2022-07-23T02:36:23;7.85;;;6.70;;
20084;SDS011;10202;48.474;9.138;2022-07-23T02:38:51;9.88;;;6.57;;
20084;SDS011;10202;48.474;9.138;2022-07-23T02:41:16;6.82;;;5.63;;
20084;SDS011;10202;48.474;9.138;2022-07-23T02:43:42;8.98;;;5.72;;
20084;SDS011;10202;48.474;9.138;2022-07-23T02:46:07;7.57;;;6.20;;
20084;SDS011;10202;48.474;9.138;2022-07-23T02:48:34;7.95;;;6.20;;
20084;SDS011;10202;48.474;9.138;2022-07-23T02:50:59;8.27;;;6.18;;
20084;SDS011;10202;48.474;9.138;2022-07-23T02:53:32;9.57;;;6.63;;
20084;SDS011;10202;48.474;9.138;2022-07-23T02:55:57;7.38;;;6.05;;
20084;SDS011;10202;48.474;9.138;2022-07-23T02:58:23;9.32;;;6.47;;
20084;SDS011;10202;48.474;9.138;2022-07-23T03:00:50;9.68;;;6.22;;
20084;SDS011;10202;48.474;9.138;2022-07-23T03:03:15;7.30;;;5.85;;
20084;SDS011;10202;48.474;9.138;2022-07-23T03:05:41;8.10;;;5.75;;
20084;SDS011;10202;48.474;9.138;2022-07-23T03:08:06;6.82;;;5.80;;
20084;SDS011;10202;48.474;9.138;2022-07-23T03:10:35;8.75;;;6.00;;
20084;SDS011;10202;48.474;9.138;2022-07-23T03:13:01;7.18;;;5.65;;
20084;SDS011;10202;48.474;9.138;2022-07-23T03:15:26;6.93;;;5.35;;
20084;SDS011;10202;48.474;9.138;2022-07-23T03:17:52;8.45;;;6.00;;
20084;SDS011;10202;48.474;9.138;2022-07-23T03:20:17;9.40;;;5.85;;
20084;SDS011;10202;48.474;9.138;2022-07-23T03:22:43;7.75;;;5.50;;
20084;SDS011;10202;48.474;9.138;2022-07-23T03:25:08;9.73;;;5.70;;
20084;SDS011;10202;48.474;9.138;2022-07-23T03:27:34;8.00;;;5.75;;
20084;SDS011;10202;48.474;9.138;2022-07-23T03:30:00;7.40;;;5.50;;
20084;SDS011;10202;48.474;9.138;2022-07-23T03:32:26;6.68;;;5.97;;
20084;SDS011;10202;48.474;9.138;2022-07-23T03:34:52;10.10;;;5.88;;
20084;SDS011;10202;48.474;9.138;2022-07-23T03:37:19;9.35;;;5.88;;
20084;SDS011;10202;48.474;9.138;2022-07-23T03:39:46;6.78;;;5.60;;
20084;SDS011;10202;48.474;9.138;2022-07-23T03:42:12;6.80;;;5.50;;
20084;SDS011;10202;48.474;9.138;2022-07-23T03:44:37;11.20;;;5.97;;
20084;SDS011;10202;48.474;9.138;2022-07-23T03:47:03;7.75;;;5.60;;
20084;SDS011;10202;48.474;9.138;2022-07-23T03:49:29;8.98;;;5.97;;
20084;SDS011;10202;48.474;9.138;2022-07-23T03:51:55;7.30;;;5.50;;
20084;SDS011;10202;48.474;9.138;2022-07-23T03:54:20;6.78;;;6.00;;
20084;SDS011;10202;48.474;9.138;2022-07-23T03:56:46;7.85;;;5.25;;
20084;SDS011;10202;48.474;9.138;2022-07-23T03:59:11;7.70;;;5.68;;
20084;SDS011;10202;48.474;9.138;2022-07-23T04:01:37;6.65;;;5.68;;
20084;SDS011;10202;48.474;9.138;2022-07-23T04:04:02;9.50;;;5.78;;
20084;SDS011;10202;48.474;9.138;2022-07-23T04:06:28;8.63;;;6.35;;
20084;SDS011;10202;48.474;9.138;2022-07-23T04:08:55;6.15;;;5.55;;
20084;SDS011;10202;48.474;9.138;2022-07-23T04:11:21;9.32;;;6.57;;
20084;SDS011;10202;48.474;9.138;2022-07-23T04:13:47;7.70;;;6.30;;
20084;SDS011;10202;48.474;9.138;2022-07-23T04:16:13;7.20;;;6.10;;
20084;SDS011;10202;48.474;9.138;2022-07-23T04:18:38;12.40;;;6.80;;
20084;SDS011;10202;48.474;9.138;2022-07-23T04:21:13;11.18;;;6.05;;
20084;SDS011;10202;48.474;9.138;2022-07-23T04:23:39;7.05;;;6.18;;
20084;SDS011;10202;48.474;9.138;2022-07-23T04:26:05;8.50;;;6.68;;
20084;SDS011;10202;48.474;9.138;2022-07-23T04:28:31;10.75;;;6.30;;
20084;SDS011;10202;48.474;9.138;2022-07-23T04:30:57;8.52;;;6.47;;
20084;SDS011;10202;48.474;9.138;2022-07-23T04:33:23;8.40;;;6.40;;
20084;SDS011;10202;48.474;9.138;2022-07-23T04:35:52;8.27;;;6.18;;
20084;SDS011;10202;48.474;9.138;2022-07-23T04:38:18;20.73;;;6.32;;
20084;SDS011;10202;48.474;9.138;2022-07-23T04:40:45;7.18;;;6.15;;
20084;SDS011;10202;48.474;9.138;2022-07-23T04:43:11;9.55;;;6.38;;
20084;SDS011;10202;48.474;9.138;2022-07-23T04:45:43;8.68;;;6.20;;
20084;SDS011;10202;48.474;9.138;2022-07-23T04:48:09;18.17;;;6.50;;
20084;SDS011;10202;48.474;9.138;2022-07-23T04:50:35;7.10;;;6.38;;
20084;SDS011;10202;48.474;9.138;2022-07-23T04:53:03;8.68;;;6.50;;
20084;SDS011;10202;48.474;9.138;2022-07-23T04:55:29;9.50;;;6.43;;
20084;SDS011;10202;48.474;9.138;2022-07-23T04:57:55;11.20;;;6.38;;
20084;SDS011;10202;48.474;9.138;2022-07-23T05:00:20;8.10;;;6.20;;
20084;SDS011;10202;48.474;9.138;2022-07-23T05:02:46;8.25;;;6.45;;
20084;SDS011;10202;48.474;9.138;2022-07-23T05:05:12;6.75;;;6.10;;
20084;SDS011;10202;48.474;9.138;2022-07-23T05:07:39;7.57;;;6.60;;
20084;SDS011;10202;48.474;9.138;2022-07-23T05:10:05;9.40;;;6.60;;
20084;SDS011;10202;48.474;9.138;2022-07-23T05:12:31;8.05;;;6.90;;
20084;SDS011;10202;48.474;9.138;2022-07-23T05:14:58;8.23;;;6.18;;
20084;SDS011;10202;48.474;9.138;2022-07-23T05:17:24;10.68;;;6.60;;
20084;SDS011;10202;48.474;9.138;2022-07-23T05:19:50;9.63;;;6.57;;
20084;SDS011;10202;48.474;9.138;2022-07-23T05:22:15;11.45;;;6.43;;
20084;SDS011;10202;48.474;9.138;2022-07-23T05:24:41;7.15;;;6.10;;
20084;SDS011;10202;48.474;9.138;2022-07-23T05:27:08;7.93;;;6.15;;
20084;SDS011;10202;48.474;9.138;2022-07-23T05:29:34;7.25;;;6.47;;
20084;SDS011;10202;48.474;9.138;2022-07-23T05:31:59;8.95;;;6.45;;
20084;SDS011;10202;48.474;9.138;2022-07-23T05:34:26;10.27;;;6.43;;
20084;SDS011;10202;48.474;9.138;2022-07-23T05:36:52;11.32;;;6.22;;
20084;SDS011;10202;48.474;9.138;2022-07-23T05:39:19;7.40;;;6.63;;
20084;SDS011;10202;48.474;9.138;2022-07-23T05:41:44;7.10;;;5.93;;
20084;SDS011;10202;48.474;9.138;2022-07-23T05:44:10;9.80;;;6.57;;
20084;SDS011;10202;48.474;9.138;2022-07-23T05:46:38;10.02;;;6.10;;
20084;SDS011;10202;48.474;9.138;2022-07-23T05:49:08;7.50;;;6.55;;
20084;SDS011;10202;48.474;9.138;2022-07-23T05:52:05;10.27;;;6.90;;
20084;SDS011;10202;48.474;9.138;2022-07-23T05:55:01;6.93;;;6.22;;
20084;SDS011;10202;48.474;9.138;2022-07-23T05:57:27;8.45;;;6.68;;
20084;SDS011;10202;48.474;9.138;2022-07-23T05:59:52;7.65;;;6.80;;
20084;SDS011;10202;48.474;9.138;2022-07-23T06:02:18;8.02;;;6.32;;
20084;SDS011;10202;48.474;9.138;2022-07-23T06:04:43;7.97;;;6.30;;
20084;SDS011;10202;48.474;9.138;2022-07-23T06:07:19;7.22;;;6.10;;
20084;SDS011;10202;48.474;9.138;2022-07-23T06:09:46;8.88;;;6.55;;
20084;SDS011;10202;48.474;9.138;2022-07-23T06:12:14;7.13;;;6.35;;
20084;SDS011;10202;48.474;9.138;2022-07-23T06:14:41;9.13;;;6.40;;
20084;SDS011;10202;48.474;9.138;2022-07-23T06:17:06;8.73;;;6.68;;
20084;SDS011;10202;48.474;9.138;2022-07-23T06:19:32;10.55;;;6.50;;
20084;SDS011;10202;48.474;9.138;2022-07-23T06:21:58;7.13;;;6.43;;
20084;SDS011;10202;48.474;9.138;2022-07-23T06:24:26;10.80;;;6.43;;
20084;SDS011;10202;48.474;9.138;2022-07-23T06:26:52;7.60;;;6.80;;
20084;SDS011;10202;48.474;9.138;2022-07-23T06:29:18;6.60;;;5.90;;
20084;SDS011;10202;48.474;9.138;2022-07-23T06:31:43;10.65;;;6.03;;
20084;SDS011;10202;48.474;9.138;2022-07-23T06:34:09;6.80;;;6.10;;
20084;SDS011;10202;48.474;9.138;2022-07-23T06:36:35;7.38;;;6.60;;
20084;SDS011;10202;48.474;9.138;2022-07-23T06:39:00;9.45;;;6.00;;
20084;SDS011;10202;48.474;9.138;2022-07-23T06:41:25;7.75;;;6.63;;
20084;SDS011;10202;48.474;9.138;2022-07-23T06:43:51;7.30;;;6.57;;
20084;SDS011;10202;48.474;9.138;2022-07-23T06:46:17;7.35;;;6.50;;
20084;SDS011;10202;48.474;9.138;2022-07-23T06:48:42;9.95;;;6.68;;
20084;SDS011;10202;48.474;9.138;2022-07-23T06:51:09;7.15;;;6.45;;
20084;SDS011;10202;48.474;9.138;2022-07-23T06:53:34;7.60;;;6.30;;
20084;SDS011;10202;48.474;9.138;2022-07-23T06:56:00;7.47;;;6.57;;
20084;SDS011;10202;48.474;9.138;2022-07-23T06:58:26;9.63;;;6.40;;
20084;SDS011;10202;48.474;9.138;2022-07-23T07:00:52;7.80;;;6.70;;
20084;SDS011;10202;48.474;9.138;2022-07-23T07:03:19;7.05;;;6.30;;
20084;SDS011;10202;48.474;9.138;2022-07-23T07:05:45;7.45;;;6.60;;
20084;SDS011;10202;48.474;9.138;2022-07-23T07:08:10;7.68;;;6.28;;
20084;SDS011;10202;48.474;9.138;2022-07-23T07:10:36;8.68;;;6.45;;
20084;SDS011;10202;48.474;9.138;2022-07-23T07:13:01;7.25;;;6.07;;
20084;SDS011;10202;48.474;9.138;2022-07-23T07:15:27;7.60;;;6.80;;
20084;SDS011;10202;48.474;9.138;2022-07-23T07:17:53;9.50;;;6.90;;
20084;SDS011;10202;48.474;9.138;2022-07-23T07:20:18;8.30;;;6.80;;
20084;SDS011;10202;48.474;9.138;2022-07-23T07:22:44;8.07;;;6.65;;
20084;SDS011;10202;48.474;9.138;2022-07-23T07:25:09;6.82;;;6.18;;
20084;SDS011;10202;48.474;9.138;2022-07-23T07:27:35;8.05;;;6.63;;
20084;SDS011;10202;48.474;9.138;2022-07-23T07:30:00;6.82;;;6.05;;
20084;SDS011;10202;48.474;9.138;2022-07-23T07:32:26;7.32;;;6.13;;
20084;SDS011;10202;48.474;9.138;2022-07-23T07:34:52;7.82;;;6.25;;
20084;SDS011;10202;48.474;9.138;2022-07-23T07:37:17;9.55;;;6.13;;
20084;SDS011;10202;48.474;9.138;2022-07-23T07:39:43;10.55;;;6.28;;
20084;SDS011;10202;48.474;9.138;2022-07-23T07:42:08;9.73;;;6.00;;
20084;SDS011;10202;48.474;9.138;2022-07-23T07:44:34;6.40;;;5.75;;
20084;SDS011;10202;48.474;9.138;2022-07-23T07:46:59;6.38;;;5.68;;
20084;SDS011;10202;48.474;9.138;2022-07-23T07:49:25;6.05;;;5.43;;
20084;SDS011;10202;48.474;9.138;2022-07-23T07:51:50;7.95;;;4.85;;
20084;SDS011;10202;48.474;9.138;2022-07-23T07:54:16;5.97;;;5.38;;
20084;SDS011;10202;48.474;9.138;2022-07-23T07:56:41;7.03;;;5.18;;
20084;SDS011;10202;48.474;9.138;2022-07-23T07:59:07;7.25;;;5.57;;
20084;SDS011;10202;48.474;9.138;2022-07-23T08:01:33;6.60;;;5.85;;
20084;SDS011;10202;48.474;9.138;2022-07-23T08:03:58;6.53;;;5.70;;
20084;SDS011;10202;48.474;9.138;2022-07-23T08:06:24;7.03;;;5.05;;
20084;SDS011;10202;48.474;9.138;2022-07-23T08:08:49;8.32;;;5.88;;
20084;SDS011;10202;48.474;9.138;2022-07-23T08:11:15;7.57;;;6.20;;
20084;SDS011;10202;48.474;9.138;2022-07-23T08:13:41;6.80;;;5.85;;
20084;SDS011;10202;48.474;9.138;2022-07-23T08:16:06;7.68;;;6.00;;
20084;SDS011;10202;48.474;9.138;2022-07-23T08:18:32;8.65;;;5.80;;
20084;SDS011;10202;48.474;9.138;2022-07-23T08:20:58;7.00;;;5.85;;
20084;SDS011;10202;48.474;9.138;2022-07-23T08:23:23;6.80;;;5.57;;
20084;SDS011;10202;48.474;9.138;2022-07-23T08:25:49;6.85;;;6.15;;
20084;SDS011;10202;48.474;9.138;2022-07-23T08:28:14;9.65;;;5.75;;
20084;SDS011;10202;48.474;9.138;2022-07-23T08:30:41;7.13;;;5.75;;
20084;SDS011;10202;48.474;9.138;2022-07-23T08:33:08;7.70;;;5.90;;
20084;SDS011;10202;48.474;9.138;2022-07-23T08:35:40;6.65;;;5.95;;
20084;SDS011;10202;48.474;9.138;2022-07-23T08:38:07;9.27;;;5.80;;
20084;SDS011;10202;48.474;9.138;2022-07-23T08:40:38;8.75;;;6.15;;
20084;SDS011;10202;48.474;9.138;2022-07-23T08:43:05;5.93;;;5.35;;
20084;SDS011;10202;48.474;9.138;2022-07-23T08:45:37;6.70;;;6.00;;
20084;SDS011;10202;48.474;9.138;2022-07-23T08:48:05;8.32;;;6.10;;
20084;SDS011;10202;48.474;9.138;2022-07-23T08:50:33;6.63;;;6.03;;
20084;SDS011;10202;48.474;9.138;2022-07-23T08:53:01;6.82;;;5.90;;
20084;SDS011;10202;48.474;9.138;2022-07-23T08:55:27;8.15;;;5.68;;
20084;SDS011;10202;48.474;9.138;2022-07-23T08:57:53;6.90;;;6.20;;
20084;SDS011;10202;48.474;9.138;2022-07-23T09:00:19;8.07;;;6.50;;
20084;SDS011;10202;48.474;9.138;2022-07-23T09:02:46;6.63;;;5.90;;
20084;SDS011;10202;48.474;9.138;2022-07-23T09:05:12;6.28;;;5.65;;
20084;SDS011;10202;48.474;9.138;2022-07-23T09:08:02;7.47;;;6.13;;
20084;SDS011;10202;48.474;9.138;2022-07-23T09:16:06;7.40;;;6.57;;
20084;SDS011;10202;48.474;9.138;2022-07-23T09:18:41;8.25;;;6.45;;
20084;SDS011;10202;48.474;9.138;2022-07-23T09:21:18;7.65;;;6.05;;
20084;SDS011;10202;48.474;9.138;2022-07-23T09:24:04;6.95;;;5.80;;
20084;SDS011;10202;48.474;9.138;2022-07-23T09:28:58;10.52;;;6.20;;
20084;SDS011;10202;48.474;9.138;2022-07-23T09:31:32;6.57;;;5.97;;
20084;SDS011;10202;48.474;9.138;2022-07-23T09:34:06;6.90;;;6.15;;
20084;SDS011;10202;48.474;9.138;2022-07-23T09:36:33;7.32;;;6.63;;
20084;SDS011;10202;48.474;9.138;2022-07-23T09:38:58;11.70;;;6.22;;
20084;SDS011;10202;48.474;9.138;2022-07-23T09:41:24;9.65;;;6.97;;
20084;SDS011;10202;48.474;9.138;2022-07-23T09:43:54;7.90;;;7.00;;
20084;SDS011;10202;48.474;9.138;2022-07-23T09:48:52;7.88;;;7.07;;
20084;SDS011;10202;48.474;9.138;2022-07-23T09:51:19;7.47;;;6.65;;
20084;SDS011;10202;48.474;9.138;2022-07-23T09:54:03;7.78;;;6.70;;
20084;SDS011;10202;48.474;9.138;2022-07-23T09:56:29;7.53;;;6.68;;
20084;SDS011;10202;48.474;9.138;2022-07-23T09:58:56;8.98;;;7.22;;
20084;SDS011;10202;48.474;9.138;2022-07-23T10:01:29;7.30;;;6.57;;
20084;SDS011;10202;48.474;9.138;2022-07-23T10:03:56;7.15;;;6.45;;
20084;SDS011;10202;48.474;9.138;2022-07-23T10:06:40;10.23;;;6.70;;
20084;SDS011;10202;48.474;9.138;2022-07-23T10:09:36;8.07;;;6.63;;
20084;SDS011;10202;48.474;9.138;2022-07-23T10:12:35;7.57;;;6.88;;
20084;SDS011;10202;48.474;9.138;2022-07-23T10:15:17;9.20;;;6.75;;
20084;SDS011;10202;48.474;9.138;2022-07-23T10:17:43;7.28;;;6.57;;
20084;SDS011;10202;48.474;9.138;2022-07-23T10:20:08;7.65;;;6.85;;
20084;SDS011;10202;48.474;9.138;2022-07-23T10:22:38;7.22;;;6.53;;
20084;SDS011;10202;48.474;9.138;2022-07-23T10:28:12;7.32;;;6.63;;
20084;SDS011;10202;48.474;9.138;2022-07-23T10:36:56;8.30;;;6.93;;
20084;SDS011;10202;48.474;9.138;2022-07-23T10:42:07;7.95;;;6.97;;
20084;SDS011;10202;48.474;9.138;2022-07-23T10:44:43;7.85;;;6.95;;
20084;SDS011;10202;48.474;9.138;2022-07-23T10:47:11;8.82;;;7.50;;
20084;SDS011;10202;48.474;9.138;2022-07-23T10:49:52;7.95;;;7.07;;
20084;SDS011;10202;48.474;9.138;2022-07-23T10:52:21;7.95;;;7.15;;
20084;SDS011;10202;48.474;9.138;2022-07-23T10:54:55;9.20;;;7.57;;
20084;SDS011;10202;48.474;9.138;2022-07-23T10:57:50;8.07;;;7.28;;
20084;SDS011;10202;48.474;9.138;2022-07-23T11:00:19;7.82;;;7.03;;
20084;SDS011;10202;48.474;9.138;2022-07-23T11:02:47;8.30;;;7.50;;
20084;SDS011;10202;48.474;9.138;2022-07-23T11:05:18;8.68;;;7.22;;
20084;SDS011;10202;48.474;9.138;2022-07-23T11:10:37;9.27;;;7.65;;
20084;SDS011;10202;48.474;9.138;2022-07-23T11:24:07;8.07;;;7.30;;
20084;SDS011;10202;48.474;9.138;2022-07-23T11:34:49;7.63;;;6.82;;
20084;SDS011;10202;48.474;9.138;2022-07-23T11:37:31;8.40;;;7.55;;
20084;SDS011;10202;48.474;9.138;2022-07-23T11:40:02;7.95;;;7.13;;
20084;SDS011;10202;48.474;9.138;2022-07-23T11:42:30;8.15;;;7.35;;
20084;SDS011;10202;48.474;9.138;2022-07-23T11:44:56;8.38;;;7.18;;
20084;SDS011;10202;48.474;9.138;2022-07-23T11:47:23;8.77;;;7.18;;
20084;SDS011;10202;48.474;9.138;2022-07-23T11:52:18;9.25;;;7.43;;
20084;SDS011;10202;48.474;9.138;2022-07-23T11:54:51;8.13;;;7.32;;
20084;SDS011;10202;48.474;9.138;2022-07-23T11:57:20;7.97;;;7.03;;
20084;SDS011;10202;48.474;9.138;2022-07-23T11:59:51;8.90;;;7.40;;
20084;SDS011;10202;48.474;9.138;2022-07-23T12:02:19;8.93;;;7.78;;
20084;SDS011;10202;48.474;9.138;2022-07-23T12:04:47;8.95;;;8.00;;
20084;SDS011;10202;48.474;9.138;2022-07-23T12:07:24;11.73;;;7.72;;
20084;SDS011;10202;48.474;9.138;2022-07-23T12:10:13;8.70;;;7.80;;
20084;SDS011;10202;48.474;9.138;2022-07-23T12:15:18;8.35;;;7.60;;
20084;SDS011;10202;48.474;9.138;2022-07-23T12:17:46;8.38;;;7.47;;
20084;SDS011;10202;48.474;9.138;2022-07-23T12:20:13;8.65;;;7.43;;
20084;SDS011;10202;48.474;9.138;2022-07-23T12:22:42;8.75;;;7.85;;
20084;SDS011;10202;48.474;9.138;2022-07-23T12:25:19;9.68;;;8.13;;
20084;SDS011;10202;48.474;9.138;2022-07-23T12:27:57;7.75;;;7.00;;
20084;SDS011;10202;48.474;9.138;2022-07-23T12:30:34;7.80;;;7.00;;
20084;SDS011;10202;48.474;9.138;2022-07-23T12:33:03;10.02;;;7.28;;
20084;SDS011;10202;48.474;9.138;2022-07-23T12:35:30;8.65;;;7.03;;
20084;SDS011;10202;48.474;9.138;2022-07-23T12:38:01;8.52;;;7.55;;
20084;SDS011;10202;48.474;9.138;2022-07-23T12:40:29;8.65;;;7.65;;
20084;SDS011;10202;48.474;9.138;2022-07-23T12:42:58;9.95;;;7.60;;
20084;SDS011;10202;48.474;9.138;2022-07-23T12:45:42;8.88;;;7.70;;
20084;SDS011;10202;48.474;9.138;2022-07-23T12:48:26;8.07;;;7.28;;
20084;SDS011;10202;48.474;9.138;2022-07-23T12:50:54;7.97;;;7.28;;
20084;SDS011;10202;48.474;9.138;2022-07-23T12:53:25;7.57;;;6.88;;
20084;SDS011;10202;48.474;9.138;2022-07-23T12:55:56;10.18;;;7.80;;
20084;SDS011;10202;48.474;9.138;2022-07-23T12:58:25;10.50;;;7.00;;
20084;SDS011;10202;48.474;9.138;2022-07-23T13:00:58;9.18;;;7.18;;
20084;SDS011;10202;48.474;9.138;2022-07-23T13:03:40;7.88;;;7.15;;
20084;SDS011;10202;48.474;9.138;2022-07-23T13:06:07;7.93;;;7.00;;
20084;SDS011;10202;48.474;9.138;2022-07-23T13:08:34;8.55;;;6.93;;
20084;SDS011;10202;48.474;9.138;2022-07-23T13:11:01;9.02;;;7.40;;
20084;SDS011;10202;48.474;9.138;2022-07-23T13:13:29;11.38;;;7.90;;
20084;SDS011;10202;48.474;9.138;2022-07-23T13:15:56;8.02;;;7.22;;
20084;SDS011;10202;48.474;9.138;2022-07-23T13:18:23;8.60;;;7.15;;
20084;SDS011;10202;48.474;9.138;2022-07-23T13:20:50;11.98;;;7.45;;
20084;SDS011;10202;48.474;9.138;2022-07-23T13:23:15;10.25;;;7.13;;
20084;SDS011;10202;48.474;9.138;2022-07-23T13:25:41;7.57;;;6.88;;
20084;SDS011;10202;48.474;9.138;2022-07-23T13:28:07;8.30;;;7.47;;
20084;SDS011;10202;48.474;9.138;2022-07-23T13:30:33;8.45;;;7.00;;
20084;SDS011;10202;48.474;9.138;2022-07-23T13:32:58;10.73;;;7.07;;
20084;SDS011;10202;48.474;9.138;2022-07-23T13:35:24;7.93;;;6.78;;
20084;SDS011;10202;48.474;9.138;2022-07-23T13:37:50;8.63;;;7.10;;
20084;SDS011;10202;48.474;9.138;2022-07-23T13:40:16;8.90;;;7.13;;
20084;SDS011;10202;48.474;9.138;2022-07-23T13:42:41;8.30;;;7.15;;
20084;SDS011;10202;48.474;9.138;2022-07-23T13:45:07;10.07;;;7.88;;
20084;SDS011;10202;48.474;9.138;2022-07-23T13:47:33;7.20;;;6.47;;
20084;SDS011;10202;48.474;9.138;2022-07-23T13:49:58;9.52;;;7.25;;
20084;SDS011;10202;48.474;9.138;2022-07-23T13:52:24;8.25;;;7.07;;
20084;SDS011;10202;48.474;9.138;2022-07-23T13:54:50;8.65;;;7.03;;
20084;SDS011;10202;48.474;9.138;2022-07-23T13:57:15;7.90;;;7.10;;
20084;SDS011;10202;48.474;9.138;2022-07-23T13:59:41;7.13;;;6.38;;
20084;SDS011;10202;48.474;9.138;2022-07-23T14:02:06;7.10;;;6.35;;
20084;SDS011;10202;48.474;9.138;2022-07-23T14:04:33;6.95;;;6.05;;
20084;SDS011;10202;48.474;9.138;2022-07-23T14:06:58;8.65;;;6.50;;
20084;SDS011;10202;48.474;9.138;2022-07-23T14:09:24;7.55;;;6.85;;
20084;SDS011;10202;48.474;9.138;2022-07-23T14:11:50;8.90;;;6.60;;
20084;SDS011;10202;48.474;9.138;2022-07-23T14:14:16;9.05;;;6.18;;
20084;SDS011;10202;48.474;9.138;2022-07-23T14:16:42;6.53;;;5.93;;
20084;SDS011;10202;48.474;9.138;2022-07-23T14:19:09;6.93;;;6.00;;
20084;SDS011;10202;48.474;9.138;2022-07-23T14:21:34;7.07;;;6.38;;
20084;SDS011;10202;48.474;9.138;2022-07-23T14:24:00;7.32;;;6.15;;
20084;SDS011;10202;48.474;9.138;2022-07-23T14:26:25;7.05;;;6.35;;
20084;SDS011;10202;48.474;9.138;2022-07-23T14:28:51;8.70;;;6.45;;
20084;SDS011;10202;48.474;9.138;2022-07-23T14:31:16;10.13;;;6.35;;
20084;SDS011;10202;48.474;9.138;2022-07-23T14:33:42;7.43;;;6.68;;
20084;SDS011;10202;48.474;9.138;2022-07-23T14:36:07;8.18;;;6.40;;
20084;SDS011;10202;48.474;9.138;2022-07-23T14:38:33;8.98;;;6.97;;
20084;SDS011;10202;48.474;9.138;2022-07-23T14:40:59;7.15;;;6.43;;
20084;SDS011;10202;48.474;9.138;2022-07-23T14:43:24;6.93;;;6.22;;
20084;SDS011;10202;48.474;9.138;2022-07-23T14:45:50;8.57;;;6.65;;
20084;SDS011;10202;48.474;9.138;2022-07-23T14:48:15;8.30;;;6.32;;
20084;SDS011;10202;48.474;9.138;2022-07-23T14:50:41;9.55;;;6.97;;
20084;SDS011;10202;48.474;9.138;2022-07-23T14:53:06;8.90;;;6.90;;
20084;SDS011;10202;48.474;9.138;2022-07-23T14:55:32;14.63;;;6.75;;
20084;SDS011;10202;48.474;9.138;2022-07-23T14:57:58;7.40;;;6.50;;
20084;SDS011;10202;48.474;9.138;2022-07-23T15:00:24;7.25;;;6.55;;
20084;SDS011;10202;48.474;9.138;2022-07-23T15:02:52;7.70;;;6.82;;
20084;SDS011;10202;48.474;9.138;2022-07-23T15:05:18;8.27;;;7.43;;
20084;SDS011;10202;48.474;9.138;2022-07-23T15:07:43;7.25;;;6.55;;
20084;SDS011;10202;48.474;9.138;2022-07-23T15:10:09;7.72;;;6.47;;
20084;SDS011;10202;48.474;9.138;2022-07-23T15:12:34;7.93;;;7.13;;
20084;SDS011;10202;48.474;9.138;2022-07-23T15:15:00;10.07;;;7.15;;
20084;SDS011;10202;48.474;9.138;2022-07-23T15:17:26;7.75;;;6.78;;
20084;SDS011;10202;48.474;9.138;2022-07-23T15:19:51;8.40;;;7.13;;
20084;SDS011;10202;48.474;9.138;2022-07-23T15:22:17;7.80;;;7.00;;
20084;SDS011;10202;48.474;9.138;2022-07-23T15:24:43;8.18;;;6.55;;
20084;SDS011;10202;48.474;9.138;2022-07-23T15:27:08;7.38;;;6.53;;
20084;SDS011;10202;48.474;9.138;2022-07-23T15:29:34;8.15;;;7.20;;
20084;SDS011;10202;48.474;9.138;2022-07-23T15:31:59;8.10;;;6.97;;
20084;SDS011;10202;48.474;9.138;2022-07-23T15:34:26;10.20;;;7.40;;
20084;SDS011;10202;48.474;9.138;2022-07-23T15:36:52;9.55;;;7.00;;